KABR/ABR METAR and TAF weather

Enter ICAO airport designator
Station Type Date Time Source
KABR METAR 2020/09/22 07:53 UTC NOAA

KABR 220753Z AUTO 36004KT 10SM CLR 12/09 A3005 RMK AO2 SLP170 T01170089


Station Type Date Time Source
KABR Decoded METAR 2020/09/22 07:53 UTC NOAA

ABERDEEN REGIONAL AIRPORT, SD, United States (KABR) 45-27N 098-25W 400M
Sep 22, 2020 - 03:53 AM EDT / 2020.09.22 0753 UTC
Wind: from the N (360 degrees) at 5 MPH (4 KT):0
Visibility: 10 mile(s):0
Sky conditions: clear
Temperature: 53.1 F (11.7 C)
Dew Point: 48.0 F (8.9 C)
Relative Humidity: 82%
Pressure (altimeter): 30.05 in. Hg (1017 hPa)
ob: KABR 220753Z AUTO 36004KT 10SM CLR 12/09 A3005 RMK AO2 SLP170 T01170089
cycle: 8

Station Type Date Time Source
KABR TAF 2020/09/22 06:22 UTC NOAA

TAF KABR 220520Z 2206/2306 VRB03KT P6SM SKC
FM221500 13007KT P6SM SKC

Example: see airport list